Time;durP1;ratioP1;P1;durP2;ratioP2;P2;SDS_P1;SDS_P2;PMS_P1;PMS_P2;Temp;Humidity;BMP_temperature;BMP_pressure;BME280_temperature;BME280_humidity;BME280_pressure;Samples;Min_cycle;Max_cycle;Signal;HPM_P1;HPM_P2
2024/03/03 00:00:24;;;;;;;5.82;3.03;;;12.30;87.10;;;;;;4995944;28;20018;-80
2024/03/03 00:02:51;;;;;;;4.85;2.65;;;12.30;87.10;;;;;;5013256;28;20368;-80
2024/03/03 00:05:16;;;;;;;5.65;2.92;;;12.20;87.10;;;;;;4995913;28;20018;-80
2024/03/03 00:07:42;;;;;;;5.45;2.97;;;12.30;87.10;;;;;;4995810;28;20088;-79
2024/03/03 00:10:07;;;;;;;5.32;2.97;;;12.30;87.10;;;;;;4995782;28;20022;-80
2024/03/03 00:12:33;;;;;;;5.20;2.80;;;12.30;87.20;;;;;;4995474;28;20045;-80
2024/03/03 00:14:58;;;;;;;5.60;2.80;;;12.30;87.20;;;;;;4995811;28;20037;-80
2024/03/03 00:17:24;;;;;;;5.25;2.95;;;12.30;87.20;;;;;;5013202;28;20029;-79
2024/03/03 00:19:49;;;;;;;5.15;2.85;;;12.30;87.20;;;;;;5013220;28;20014;-80
2024/03/03 00:22:15;;;;;;;4.80;2.85;;;12.30;87.60;;;;;;4995491;28;20022;-80
2024/03/03 00:24:40;;;;;;;4.90;2.80;;;12.30;87.20;;;;;;5013243;28;20088;-80
2024/03/03 00:27:06;;;;;;;5.45;2.85;;;12.30;87.20;;;;;;4995148;28;20553;-80
2024/03/03 00:29:31;;;;;;;5.22;2.97;;;12.20;87.20;;;;;;4995263;28;20064;-79
2024/03/03 00:31:57;;;;;;;5.45;2.97;;;12.30;87.20;;;;;;5012764;28;20026;-79
2024/03/03 00:34:22;;;;;;;5.13;2.70;;;12.30;87.20;;;;;;4995344;28;20402;-79
2024/03/03 00:36:48;;;;;;;5.30;2.83;;;12.30;87.20;;;;;;4995504;28;20036;-80
2024/03/03 00:39:14;;;;;;;5.00;3.00;;;12.20;87.20;;;;;;5012546;28;20046;-79
2024/03/03 00:41:40;;;;;;;4.97;2.60;;;12.30;87.20;;;;;;4995215;28;20024;-79
2024/03/03 00:44:05;;;;;;;5.05;2.90;;;12.30;87.30;;;;;;4995353;28;20026;-79
2024/03/03 00:46:31;;;;;;;5.18;2.85;;;12.30;87.30;;;;;;4995703;28;20724;-79
2024/03/03 00:48:56;;;;;;;4.57;2.72;;;12.20;87.20;;;;;;4995206;28;20116;-80
2024/03/03 00:51:22;;;;;;;5.90;3.20;;;12.30;87.30;;;;;;4995465;28;20046;-79
2024/03/03 00:53:47;;;;;;;6.10;3.30;;;12.30;87.30;;;;;;5012571;28;20036;-79
2024/03/03 00:56:13;;;;;;;5.90;3.03;;;12.20;87.30;;;;;;4995087;28;20030;-80
2024/03/03 00:58:38;;;;;;;5.13;2.72;;;12.30;87.30;;;;;;5012810;28;20022;-80
2024/03/03 01:01:04;;;;;;;5.78;3.08;;;12.30;87.30;;;;;;4995208;28;20030;-80
2024/03/03 01:03:31;;;;;;;5.38;2.88;;;12.30;87.20;;;;;;4994920;28;20030;-79
2024/03/03 01:05:57;;;;;;;4.90;2.83;;;12.20;87.20;;;;;;5012642;28;20018;-80
2024/03/03 01:08:22;;;;;;;5.38;3.00;;;12.20;87.20;;;;;;5012479;28;20634;-80
2024/03/03 01:10:48;;;;;;;5.35;2.95;;;12.30;87.30;;;;;;4994940;28;20556;-79
2024/03/03 01:13:13;;;;;;;5.07;2.90;;;12.20;87.20;;;;;;5012234;28;20085;-79
2024/03/03 01:15:39;;;;;;;5.40;3.17;;;12.30;87.20;;;;;;4994914;28;20386;-79
2024/03/03 01:18:04;;;;;;;4.47;2.70;;;12.30;87.30;;;;;;5012270;28;20026;-79
2024/03/03 01:20:30;;;;;;;4.63;2.80;;;12.30;87.30;;;;;;4995244;28;20021;-79
2024/03/03 01:22:55;;;;;;;4.95;2.67;;;12.30;87.30;;;;;;5012328;28;20446;-79
2024/03/03 01:25:21;;;;;;;4.85;2.85;;;12.30;87.30;;;;;;4994989;28;20053;-80
2024/03/03 01:27:46;;;;;;;4.65;2.70;;;12.30;87.30;;;;;;5012543;28;20446;-78
2024/03/03 01:30:12;;;;;;;4.70;2.65;;;12.20;87.30;;;;;;4994968;28;20057;-79
2024/03/03 01:32:37;;;;;;;4.68;2.70;;;12.30;87.30;;;;;;4994753;28;20034;-79
2024/03/03 01:35:03;;;;;;;5.38;2.97;;;12.30;87.30;;;;;;5012286;28;20089;-79
2024/03/03 01:37:29;;;;;;;4.97;2.78;;;12.20;87.30;;;;;;4994741;28;20030;-80
2024/03/03 01:39:54;;;;;;;4.78;2.70;;;12.30;87.30;;;;;;4995961;28;20022;-80
2024/03/03 01:42:19;;;;;;;4.95;2.83;;;12.30;87.30;;;;;;4998199;28;20022;-80
2024/03/03 01:44:45;;;;;;;5.00;2.80;;;12.30;87.30;;;;;;5016021;28;20034;-79
2024/03/03 01:47:13;;;;;;;5.35;3.00;;;12.20;87.30;;;;;;4998431;28;20653;-79
2024/03/03 01:49:42;;;;;;;5.18;3.08;;;12.30;87.40;;;;;;4998212;28;20054;-79
2024/03/03 01:52:11;;;;;;;5.35;3.00;;;12.30;87.40;;;;;;4998150;28;20025;-79
2024/03/03 01:54:37;;;;;;;5.88;3.00;;;12.20;87.40;;;;;;4998554;28;20438;-79
2024/03/03 01:57:09;;;;;;;5.13;2.80;;;12.20;87.40;;;;;;5015892;28;20388;-79
2024/03/03 01:59:35;;;;;;;5.05;2.90;;;12.30;87.40;;;;;;4998258;28;20022;-79
2024/03/03 02:02:02;;;;;;;5.07;2.85;;;12.20;87.40;;;;;;5015719;28;20030;-79
2024/03/03 02:04:27;;;;;;;5.00;2.70;;;12.20;87.40;;;;;;4998169;28;20096;-80
2024/03/03 02:06:55;;;;;;;5.40;2.90;;;12.20;87.40;;;;;;5015936;28;20475;-79
2024/03/03 02:09:21;;;;;;;5.15;3.03;;;12.20;87.40;;;;;;4997914;28;20034;-79
2024/03/03 02:11:47;;;;;;;5.43;2.80;;;12.30;87.50;;;;;;4997851;28;20029;-78
2024/03/03 02:14:13;;;;;;;5.40;2.90;;;12.20;87.40;;;;;;5015491;28;20553;-79
2024/03/03 02:16:38;;;;;;;5.60;3.05;;;12.20;87.40;;;;;;5015545;28;20534;-79
2024/03/03 02:19:04;;;;;;;5.75;2.83;;;12.20;87.40;;;;;;5015266;28;20030;-79
2024/03/03 02:21:29;;;;;;;5.15;2.80;;;12.20;87.40;;;;;;5015195;28;20021;-79
2024/03/03 02:23:55;;;;;;;5.05;3.00;;;12.20;87.40;;;;;;4997541;28;20037;-79
2024/03/03 02:26:22;;;;;;;5.72;3.00;;;12.20;87.40;;;;;;4997607;28;20030;-79
2024/03/03 02:28:51;;;;;;;5.07;2.95;;;12.20;87.40;;;;;;4997626;28;20026;-79
2024/03/03 02:31:17;;;;;;;5.82;3.28;;;12.20;87.40;;;;;;4997342;28;20425;-79
2024/03/03 02:33:43;;;;;;;4.82;2.70;;;12.20;87.40;;;;;;4997292;28;20022;-80
2024/03/03 02:36:09;;;;;;;4.88;2.78;;;12.20;87.40;;;;;;5015187;28;20149;-79
2024/03/03 02:38:35;;;;;;;5.30;2.90;;;12.20;87.50;;;;;;4997394;28;20118;-79
2024/03/03 02:41:00;;;;;;;5.30;3.00;;;12.20;87.40;;;;;;4997794;28;20022;-79
2024/03/03 02:43:26;;;;;;;5.20;2.95;;;12.20;87.50;;;;;;4997140;28;20672;-80
2024/03/03 02:45:51;;;;;;;5.32;3.10;;;12.20;87.50;;;;;;4997366;28;20053;-79
2024/03/03 02:48:18;;;;;;;4.40;2.53;;;12.10;87.40;;;;;;5014747;28;20041;-79
2024/03/03 02:50:44;;;;;;;5.50;3.00;;;12.30;87.50;;;;;;4996988;28;20025;-79
2024/03/03 02:53:09;;;;;;;4.65;2.60;;;12.20;87.50;;;;;;5014307;28;20041;-79
2024/03/03 02:55:35;;;;;;;4.82;3.00;;;12.30;87.50;;;;;;5014760;28;20394;-79
2024/03/03 02:58:00;;;;;;;5.00;2.90;;;12.30;87.60;;;;;;4997071;28;20030;-79
2024/03/03 03:00:26;;;;;;;4.90;2.80;;;12.20;87.40;;;;;;5014371;28;20033;-79
2024/03/03 03:02:52;;;;;;;5.43;2.88;;;12.20;87.40;;;;;;5014388;28;20056;-79
2024/03/03 03:05:18;;;;;;;4.68;2.55;;;12.20;87.50;;;;;;4997122;28;20053;-80
2024/03/03 03:07:43;;;;;;;4.93;2.80;;;12.20;87.40;;;;;;4996880;28;20390;-79
2024/03/03 03:10:09;;;;;;;5.18;2.90;;;12.20;87.40;;;;;;4996859;28;20061;-79
2024/03/03 03:12:34;;;;;;;4.43;2.60;;;12.20;87.30;;;;;;5014114;28;20057;-79
2024/03/03 03:14:59;;;;;;;4.93;2.70;;;12.20;87.40;;;;;;4996907;28;20396;-79
2024/03/03 03:17:25;;;;;;;5.78;2.70;;;12.20;87.40;;;;;;4996854;28;20030;-80
2024/03/03 03:19:50;;;;;;;5.10;2.83;;;12.20;87.40;;;;;;4996624;28;20029;-79
2024/03/03 03:22:16;;;;;;;4.93;2.63;;;12.20;87.40;;;;;;5013841;28;20030;-80
2024/03/03 03:24:42;;;;;;;5.05;2.90;;;12.20;87.40;;;;;;4996590;28;20017;-79
2024/03/03 03:27:07;;;;;;;5.15;3.05;;;12.20;87.50;;;;;;4996566;28;20089;-79
2024/03/03 03:29:33;;;;;;;4.85;2.70;;;12.20;87.40;;;;;;4996200;28;20022;-80
2024/03/03 03:31:58;;;;;;;4.95;2.80;;;12.20;87.50;;;;;;5013635;28;20485;-79
2024/03/03 03:34:24;;;;;;;4.60;2.60;;;12.20;87.50;;;;;;4996435;28;20161;-79
2024/03/03 03:36:49;;;;;;;4.63;2.70;;;12.20;87.50;;;;;;4996348;28;20029;-79
2024/03/03 03:39:15;;;;;;;4.88;2.60;;;12.20;87.40;;;;;;4996287;28;20030;-79
2024/03/03 03:41:45;;;;;;;5.05;2.83;;;12.20;87.50;;;;;;4996072;28;20041;-79
2024/03/03 03:44:11;;;;;;;4.90;2.75;;;12.20;87.50;;;;;;4996035;28;20061;-80
2024/03/03 03:46:37;;;;;;;4.68;2.80;;;12.20;87.50;;;;;;5013786;28;20058;-81
2024/03/03 03:49:03;;;;;;;5.07;2.90;;;12.20;87.50;;;;;;4993279;28;20079;-79
2024/03/03 03:51:29;;;;;;;5.32;3.00;;;12.20;87.50;;;;;;4995797;28;20451;-80
2024/03/03 03:53:55;;;;;;;5.15;3.10;;;12.20;87.50;;;;;;5013469;28;20061;-79
2024/03/03 03:56:20;;;;;;;5.68;2.90;;;12.20;87.50;;;;;;5013501;28;20394;-80
2024/03/03 03:58:46;;;;;;;5.30;2.92;;;12.20;87.50;;;;;;5013441;28;20030;-79
2024/03/03 04:01:18;;;;;;;4.68;2.72;;;12.20;87.60;;;;;;4995730;28;20413;-79
2024/03/03 04:03:43;;;;;;;4.75;2.72;;;12.20;87.60;;;;;;4995188;28;20080;-80
2024/03/03 04:06:09;;;;;;;4.63;2.78;;;12.20;87.60;;;;;;4995986;28;20616;-79
2024/03/03 04:08:34;;;;;;;4.55;2.40;;;12.20;87.60;;;;;;4995918;28;20022;-79
2024/03/03 04:11:00;;;;;;;5.03;2.80;;;12.20;88.10;;;;;;4995882;28;20026;-80
2024/03/03 04:13:25;;;;;;;4.65;2.53;;;12.20;87.40;;;;;;4995764;28;20111;-80
2024/03/03 04:15:51;;;;;;;4.93;2.65;;;12.20;87.40;;;;;;5013223;28;20057;-79
2024/03/03 04:18:16;;;;;;;5.38;2.90;;;12.30;87.50;;;;;;4995652;28;20367;-79
2024/03/03 04:20:42;;;;;;;4.85;2.78;;;12.20;87.50;;;;;;4995628;28;20018;-80
2024/03/03 04:23:07;;;;;;;4.88;2.80;;;12.20;87.50;;;;;;4995262;28;20048;-80
2024/03/03 04:25:33;;;;;;;5.13;2.90;;;12.20;87.50;;;;;;5013060;28;20101;-80
2024/03/03 04:27:58;;;;;;;4.68;2.55;;;12.20;87.50;;;;;;5013082;28;21639;-79
2024/03/03 04:30:25;;;;;;;4.57;2.78;;;12.20;87.60;;;;;;5012938;28;20038;-80
2024/03/03 04:32:51;;;;;;;4.93;2.80;;;12.20;87.60;;;;;;5012728;28;20045;-80
2024/03/03 04:35:16;;;;;;;5.35;2.75;;;12.20;87.60;;;;;;5013320;28;20084;-79
2024/03/03 04:37:42;;;;;;;5.22;2.95;;;12.20;87.60;;;;;;4995350;28;20022;-79
2024/03/03 04:40:08;;;;;;;5.35;3.10;;;12.20;87.70;;;;;;4995389;28;20117;-80
2024/03/03 04:42:33;;;;;;;4.47;2.47;;;12.20;87.70;;;;;;4995079;28;20026;-79
2024/03/03 04:44:59;;;;;;;4.97;2.97;;;12.20;87.70;;;;;;5013194;28;20037;-79
2024/03/03 04:47:24;;;;;;;4.65;2.70;;;12.20;87.70;;;;;;4995216;28;20022;-79
2024/03/03 04:49:50;;;;;;;5.47;2.58;;;12.20;87.70;;;;;;4995479;28;20471;-79
2024/03/03 04:52:16;;;;;;;5.15;2.80;;;12.10;87.60;;;;;;4995146;28;20032;-80
2024/03/03 04:54:41;;;;;;;5.10;2.80;;;12.20;87.70;;;;;;4995102;28;20088;-79
2024/03/03 04:57:07;;;;;;;5.13;2.80;;;12.20;87.70;;;;;;4995190;28;20079;-80
2024/03/03 04:59:32;;;;;;;5.05;2.70;;;12.20;87.70;;;;;;4995253;28;20030;-80
2024/03/03 05:01:58;;;;;;;4.90;2.75;;;12.20;87.70;;;;;;5012488;28;20443;-80
2024/03/03 05:04:23;;;;;;;4.38;2.60;;;12.20;87.80;;;;;;5012676;28;20033;-80
2024/03/03 05:06:49;;;;;;;4.43;2.65;;;12.20;87.70;;;;;;4995058;28;20657;-78
2024/03/03 05:09:15;;;;;;;5.53;2.97;;;12.30;87.80;;;;;;4994945;28;20116;-80
2024/03/03 05:11:42;;;;;;;5.45;2.95;;;12.20;87.80;;;;;;4995086;28;20107;-80
2024/03/03 05:14:08;;;;;;;4.55;2.60;;;12.20;87.80;;;;;;4996593;28;20032;-80
2024/03/03 05:16:33;;;;;;;4.82;2.70;;;12.20;87.80;;;;;;4999066;28;20025;-80
2024/03/03 05:18:59;;;;;;;5.10;2.70;;;12.20;87.80;;;;;;5016563;28;20409;-80
2024/03/03 05:21:24;;;;;;;5.40;2.75;;;12.10;87.70;;;;;;4998964;28;20014;-79
2024/03/03 05:23:50;;;;;;;4.70;2.63;;;12.10;87.70;;;;;;4998691;28;20181;-80
2024/03/03 05:26:16;;;;;;;4.80;2.67;;;12.20;87.80;;;;;;4998764;28;20026;-79
2024/03/03 05:28:42;;;;;;;5.03;2.67;;;12.20;87.80;;;;;;5016235;28;20037;-79
2024/03/03 05:31:07;;;;;;;3.95;2.28;;;12.20;87.80;;;;;;4998775;28;20025;-79
2024/03/03 05:33:33;;;;;;;4.95;2.65;;;12.20;87.80;;;;;;4998647;28;20029;-80
2024/03/03 05:35:58;;;;;;;5.03;2.78;;;12.20;87.80;;;;;;4998814;28;20076;-80
2024/03/03 05:38:24;;;;;;;5.55;3.13;;;12.20;87.90;;;;;;5016226;28;20029;-80
2024/03/03 05:40:50;;;;;;;4.88;2.78;;;12.20;87.90;;;;;;4998672;28;20395;-79
2024/03/03 05:43:15;;;;;;;5.30;2.92;;;12.20;87.80;;;;;;4998289;28;20097;-79
2024/03/03 05:45:41;;;;;;;5.00;2.95;;;12.20;87.80;;;;;;5016204;28;20029;-79
2024/03/03 05:48:07;;;;;;;5.00;2.67;;;12.20;87.70;;;;;;4997520;28;20061;-79
2024/03/03 05:50:32;;;;;;;5.40;3.10;;;12.20;87.70;;;;;;4989746;28;20030;-80
2024/03/03 05:52:57;;;;;;;4.93;2.88;;;12.20;87.60;;;;;;5015804;28;20034;-79
2024/03/03 05:55:23;;;;;;;4.90;2.70;;;12.20;87.70;;;;;;4998405;28;20171;-80
2024/03/03 05:57:48;;;;;;;4.63;2.85;;;12.20;87.70;;;;;;4998074;28;20025;-78
2024/03/03 06:00:14;;;;;;;5.97;3.05;;;12.20;87.60;;;;;;4998413;28;20640;-80
2024/03/03 06:02:40;;;;;;;5.30;2.90;;;12.20;87.70;;;;;;4997059;28;20030;-79
2024/03/03 06:05:06;;;;;;;4.75;2.70;;;12.20;87.60;;;;;;4998045;28;20018;-80
2024/03/03 06:07:32;;;;;;;5.18;2.70;;;12.20;87.50;;;;;;5015725;28;20038;-80
2024/03/03 06:09:57;;;;;;;5.20;2.67;;;12.20;87.60;;;;;;4997758;28;20029;-80
2024/03/03 06:12:23;;;;;;;6.15;3.20;;;12.20;87.70;;;;;;4997335;28;20422;-79
2024/03/03 06:14:49;;;;;;;4.97;2.75;;;12.20;87.70;;;;;;4996356;28;20096;-78
2024/03/03 06:17:14;;;;;;;4.78;2.47;;;12.20;87.70;;;;;;4994063;28;20050;-82
2024/03/03 06:19:40;;;;;;;4.78;2.60;;;12.20;87.70;;;;;;4994398;28;20538;-83
2024/03/03 06:22:08;;;;;;;5.18;2.95;;;12.20;87.60;;;;;;4994561;28;20487;-82
2024/03/03 06:24:34;;;;;;;4.63;2.72;;;12.20;87.70;;;;;;4998304;28;20021;-82
2024/03/03 06:27:00;;;;;;;5.35;2.92;;;12.20;87.70;;;;;;4997081;28;20100;-82
2024/03/03 06:29:26;;;;;;;5.35;2.97;;;12.20;87.80;;;;;;5015057;28;20482;-80
2024/03/03 06:31:51;;;;;;;4.80;2.60;;;12.20;87.70;;;;;;4997112;28;20034;-81
2024/03/03 06:34:18;;;;;;;4.65;2.63;;;12.20;87.70;;;;;;4997325;28;20125;-80
2024/03/03 06:36:43;;;;;;;4.78;2.70;;;12.30;87.70;;;;;;4997793;28;20040;-81
2024/03/03 06:39:12;;;;;;;5.13;2.72;;;12.30;87.60;;;;;;4997435;28;20042;-79
2024/03/03 06:41:37;;;;;;;5.40;2.90;;;12.30;87.50;;;;;;4997664;28;20021;-82
2024/03/03 06:44:03;;;;;;;5.00;2.85;;;12.30;87.50;;;;;;5006609;28;20033;-81
2024/03/03 06:46:28;;;;;;;5.35;3.25;;;12.30;87.40;;;;;;5013116;28;20356;-82
2024/03/03 06:48:54;;;;;;;4.00;2.33;;;12.30;87.50;;;;;;5013072;28;20061;-81
2024/03/03 06:51:20;;;;;;;4.90;2.80;;;12.30;87.40;;;;;;5011662;28;20030;-82
2024/03/03 06:53:45;;;;;;;5.25;2.90;;;12.30;87.30;;;;;;5012006;28;20858;-81
2024/03/03 06:56:15;;;;;;;5.38;2.97;;;12.30;87.20;;;;;;5011508;28;20030;-82
2024/03/03 06:58:42;;;;;;;5.30;3.05;;;12.40;87.20;;;;;;5011463;28;20030;-82
2024/03/03 07:01:07;;;;;;;5.18;2.95;;;12.40;87.10;;;;;;5012152;28;20028;-81
2024/03/03 07:06:18;;;;;;;4.95;2.85;;;12.50;87.00;;;;;;5014575;28;20064;-83
2024/03/03 07:08:43;;;;;;;5.32;3.08;;;12.50;86.90;;;;;;5011446;28;20022;-83
2024/03/03 07:11:09;;;;;;;4.53;2.47;;;12.50;86.70;;;;;;5013571;28;20033;-82
2024/03/03 07:13:34;;;;;;;4.95;2.88;;;12.50;86.60;;;;;;5013222;28;20038;-82
2024/03/03 07:16:00;;;;;;;4.75;2.50;;;12.60;86.50;;;;;;5011809;28;20026;-82
2024/03/03 07:18:25;;;;;;;5.07;2.80;;;12.60;86.40;;;;;;5011678;28;20108;-82
2024/03/03 07:20:51;;;;;;;4.80;2.70;;;12.60;86.30;;;;;;5011499;28;20026;-82
2024/03/03 07:23:16;;;;;;;4.95;2.60;;;12.60;86.30;;;;;;5010470;28;20032;-82
2024/03/03 07:25:42;;;;;;;5.13;2.80;;;12.70;86.40;;;;;;5010111;28;20030;-82
2024/03/03 07:28:08;;;;;;;5.25;2.58;;;12.70;86.30;;;;;;5009967;28;20026;-81
2024/03/03 07:30:33;;;;;;;5.50;3.10;;;12.70;86.10;;;;;;5011340;28;20038;-80
2024/03/03 07:32:59;;;;;;;5.22;2.90;;;12.80;86.10;;;;;;5010442;28;20124;-82
2024/03/03 07:35:26;;;;;;;5.22;2.75;;;12.80;86.00;;;;;;5009837;28;20075;-80
2024/03/03 07:37:52;;;;;;;4.60;2.80;;;12.80;85.90;;;;;;5008982;28;20038;-81
2024/03/03 07:40:17;;;;;;;4.95;2.78;;;12.80;85.90;;;;;;5010287;28;20092;-82
2024/03/03 07:42:43;;;;;;;5.13;2.90;;;12.90;85.90;;;;;;5010175;28;20030;-81
2024/03/03 07:45:09;;;;;;;5.47;3.00;;;12.90;85.80;;;;;;5010449;28;20022;-80
2024/03/03 07:47:34;;;;;;;4.82;2.78;;;12.90;85.70;;;;;;5011937;28;20104;-81
2024/03/03 07:50:00;;;;;;;5.32;2.92;;;12.90;85.60;;;;;;5011765;28;20116;-81
2024/03/03 07:52:25;;;;;;;4.80;2.80;;;13.00;85.60;;;;;;5011677;28;20445;-82
2024/03/03 07:54:51;;;;;;;5.25;3.00;;;13.00;85.50;;;;;;5011802;28;20673;-81
2024/03/03 07:57:17;;;;;;;4.80;2.75;;;13.00;85.40;;;;;;4998098;28;20032;-81
2024/03/03 07:59:42;;;;;;;5.38;2.85;;;13.10;85.30;;;;;;4992894;28;20385;-81
2024/03/03 08:02:07;;;;;;;4.72;2.90;;;13.10;85.30;;;;;;4992551;28;20470;-81
2024/03/03 08:04:33;;;;;;;4.68;2.63;;;13.10;85.20;;;;;;4992851;28;20021;-81
2024/03/03 08:06:58;;;;;;;6.20;3.10;;;13.10;85.20;;;;;;4992792;28;20044;-79
2024/03/03 08:09:24;;;;;;;4.80;2.85;;;13.10;85.10;;;;;;5010134;28;20028;-81
2024/03/03 08:11:49;;;;;;;5.18;2.80;;;13.20;85.10;;;;;;5010855;28;20033;-79
2024/03/03 08:14:15;;;;;;;4.70;2.80;;;13.20;85.10;;;;;;4993422;28;20049;-80
2024/03/03 08:16:40;;;;;;;5.38;3.00;;;13.20;85.00;;;;;;4992882;28;20079;-81
2024/03/03 08:19:06;;;;;;;5.53;3.00;;;13.30;85.00;;;;;;4993714;28;20494;-81
2024/03/03 08:21:32;;;;;;;4.88;2.88;;;13.30;84.90;;;;;;5011110;28;20022;-80
2024/03/03 08:23:57;;;;;;;5.20;2.78;;;13.30;84.80;;;;;;4993137;28;20022;-80
2024/03/03 08:26:25;;;;;;;5.05;3.03;;;13.30;84.70;;;;;;4993910;28;20034;-81
2024/03/03 08:28:51;;;;;;;5.55;2.97;;;13.30;84.60;;;;;;4993900;28;20133;-81
2024/03/03 08:31:16;;;;;;;5.63;3.17;;;13.40;84.60;;;;;;4993826;28;20045;-79
2024/03/03 08:33:42;;;;;;;4.78;2.67;;;13.40;84.60;;;;;;4992331;28;20111;-80
2024/03/03 08:36:07;;;;;;;5.22;2.70;;;13.40;84.50;;;;;;4992317;28;20022;-78
2024/03/03 08:38:34;;;;;;;5.75;3.08;;;13.50;84.50;;;;;;4991924;28;20542;-80
2024/03/03 08:41:00;;;;;;;5.00;2.70;;;13.50;84.40;;;;;;5010966;28;20513;-78
2024/03/03 08:43:25;;;;;;;4.68;2.78;;;13.50;84.30;;;;;;5010413;28;20030;-79
2024/03/03 08:45:51;;;;;;;5.60;2.85;;;13.60;84.30;;;;;;4990466;28;20045;-78
2024/03/03 08:48:16;;;;;;;5.55;2.97;;;13.60;84.20;;;;;;4992089;28;20033;-79
2024/03/03 08:50:42;;;;;;;4.93;2.60;;;13.60;84.20;;;;;;4992506;28;20040;-77
2024/03/03 08:53:07;;;;;;;4.55;2.58;;;13.60;84.10;;;;;;5009505;28;20045;-80
2024/03/03 08:55:33;;;;;;;4.60;2.83;;;13.60;84.00;;;;;;4991513;28;20455;-77
2024/03/03 08:57:58;;;;;;;5.10;3.00;;;13.70;84.00;;;;;;4991007;28;20125;-78
2024/03/03 09:00:24;;;;;;;4.22;2.55;;;13.70;84.00;;;;;;5008810;28;20052;-79
2024/03/03 09:02:49;;;;;;;4.95;2.67;;;13.70;84.00;;;;;;4991459;28;20030;-78
2024/03/03 09:05:15;;;;;;;4.93;2.80;;;13.70;83.90;;;;;;4992163;28;20022;-78
2024/03/03 09:07:40;;;;;;;5.78;3.00;;;13.70;83.80;;;;;;4992219;28;20034;-79
2024/03/03 09:10:06;;;;;;;4.43;2.60;;;13.70;83.80;;;;;;4992050;28;20040;-79
2024/03/03 09:12:32;;;;;;;5.22;3.05;;;13.70;83.80;;;;;;4991729;28;20068;-79
2024/03/03 09:14:58;;;;;;;5.10;2.78;;;13.70;83.90;;;;;;4992617;28;20022;-80
2024/03/03 09:17:24;;;;;;;5.32;3.00;;;13.70;83.90;;;;;;4992590;28;20025;-80
2024/03/03 09:19:49;;;;;;;4.82;2.95;;;13.70;83.90;;;;;;4992098;28;20029;-79
2024/03/03 09:22:15;;;;;;;4.75;2.55;;;13.70;83.90;;;;;;4993399;28;20022;-80
2024/03/03 09:24:42;;;;;;;4.05;2.35;;;13.70;83.90;;;;;;4993020;28;20025;-78
2024/03/03 09:27:08;;;;;;;5.00;2.70;;;13.80;83.90;;;;;;4992514;28;20113;-79
2024/03/03 09:29:34;;;;;;;5.03;2.58;;;13.80;83.90;;;;;;4992135;28;20093;-79
2024/03/03 09:31:59;;;;;;;5.60;3.10;;;13.80;83.90;;;;;;5010846;28;20121;-80
2024/03/03 09:34:25;;;;;;;4.88;2.90;;;13.80;83.80;;;;;;4992778;28;20030;-80
2024/03/03 09:36:51;;;;;;;5.00;2.80;;;13.80;83.80;;;;;;4992822;28;20616;-80
2024/03/03 09:39:16;;;;;;;4.80;2.67;;;13.80;83.70;;;;;;4993120;28;20093;-77
2024/03/03 09:41:43;;;;;;;4.75;2.80;;;13.80;83.80;;;;;;5008771;28;20084;-80
2024/03/03 09:44:17;;;;;;;5.13;2.90;;;13.80;83.70;;;;;;5008261;28;20518;-78
2024/03/03 09:46:43;;;;;;;5.35;2.80;;;13.80;83.80;;;;;;5008832;28;20041;-78
2024/03/03 09:49:18;;;;;;;4.97;2.78;;;13.80;83.80;;;;;;5008159;28;20026;-78
2024/03/03 09:51:45;;;;;;;5.05;2.90;;;13.80;83.80;;;;;;5007889;28;20076;-79
2024/03/03 09:54:15;;;;;;;5.05;3.05;;;13.80;83.80;;;;;;5009245;28;20041;-79
2024/03/03 09:56:45;;;;;;;4.57;2.72;;;13.80;83.80;;;;;;5008896;28;20054;-77
2024/03/03 09:59:12;;;;;;;5.22;3.05;;;13.90;83.80;;;;;;5008858;28;20037;-80
2024/03/03 10:01:39;;;;;;;5.13;2.72;;;13.80;83.80;;;;;;5011492;28;20021;-78
2024/03/03 10:04:06;;;;;;;5.13;2.78;;;13.90;83.80;;;;;;5010884;28;20022;-78
2024/03/03 10:06:35;;;;;;;5.72;3.13;;;13.90;83.70;;;;;;5011189;28;20521;-77
2024/03/03 10:09:04;;;;;;;5.10;2.80;;;13.90;83.70;;;;;;5012389;28;20030;-80
2024/03/03 10:11:32;;;;;;;5.28;2.83;;;14.00;83.70;;;;;;5011385;28;20242;-80
2024/03/03 10:13:57;;;;;;;4.97;2.92;;;14.00;83.60;;;;;;5010146;28;20446;-79
2024/03/03 10:16:25;;;;;;;7.40;3.10;;;14.00;83.60;;;;;;5010048;28;20073;-79
2024/03/03 10:19:04;;;;;;;10.10;3.35;;;14.00;83.50;;;;;;5011012;28;20033;-77
2024/03/03 10:21:36;;;;;;;6.80;3.08;;;14.00;83.50;;;;;;5009891;28;20202;-78
2024/03/03 10:24:29;;;;;;;8.38;3.25;;;14.00;83.40;;;;;;5004560;28;20025;-77
2024/03/03 10:26:56;;;;;;;5.78;3.10;;;14.00;83.40;;;;;;4990081;28;20029;-77
2024/03/03 10:29:26;;;;;;;6.68;3.47;;;14.00;83.50;;;;;;4993602;28;20061;-77
2024/03/03 10:31:52;;;;;;;6.30;3.13;;;14.10;83.50;;;;;;4992936;28;20026;-76
2024/03/03 10:34:20;;;;;;;7.53;3.17;;;14.00;83.50;;;;;;5011271;28;20501;-77
2024/03/03 10:36:46;;;;;;;9.20;2.97;;;14.10;83.60;;;;;;4992410;28;20030;-76
2024/03/03 10:39:11;;;;;;;9.95;3.40;;;14.10;83.50;;;;;;4992213;28;20041;-77
2024/03/03 10:41:37;;;;;;;8.75;3.75;;;14.20;83.50;;;;;;4991824;28;20045;-77
2024/03/03 10:44:04;;;;;;;7.47;3.30;;;14.10;83.40;;;;;;4992095;28;20030;-78
2024/03/03 10:46:30;;;;;;;6.68;2.90;;;14.20;83.40;;;;;;5009554;28;20063;-76
2024/03/03 10:48:56;;;;;;;7.55;2.90;;;14.20;83.30;;;;;;4991887;28;20919;-77
2024/03/03 10:51:22;;;;;;;5.82;2.75;;;14.20;83.20;;;;;;4991815;28;20018;-76
2024/03/03 10:53:52;;;;;;;5.90;2.90;;;14.20;83.20;;;;;;4991564;28;20033;-77
2024/03/03 10:56:19;;;;;;;5.25;2.92;;;14.30;83.30;;;;;;4991814;28;20033;-77
2024/03/03 10:58:45;;;;;;;5.75;2.88;;;14.20;83.20;;;;;;4991388;28;20037;-77
2024/03/03 11:01:14;;;;;;;6.18;2.80;;;14.20;83.20;;;;;;5009345;28;20030;-76
2024/03/03 11:03:47;;;;;;;7.28;3.13;;;14.20;83.20;;;;;;5009142;28;20026;-76
2024/03/03 11:06:14;;;;;;;6.35;3.20;;;14.20;83.20;;;;;;4992107;28;20026;-77
2024/03/03 11:08:40;;;;;;;5.50;2.85;;;14.10;83.30;;;;;;5009226;28;20069;-76
2024/03/03 11:11:08;;;;;;;5.82;3.10;;;14.20;83.50;;;;;;4991382;28;20068;-76
2024/03/03 11:13:41;;;;;;;6.13;2.90;;;14.10;83.70;;;;;;4991474;28;20097;-77
2024/03/03 11:16:08;;;;;;;6.28;3.25;;;14.10;83.90;;;;;;4991345;28;20046;-76
2024/03/03 11:18:37;;;;;;;7.90;3.05;;;14.00;84.00;;;;;;4991560;28;20041;-76
2024/03/03 11:21:08;;;;;;;5.72;2.92;;;14.00;84.20;;;;;;5008905;28;20061;-76
2024/03/03 11:23:43;;;;;;;6.60;3.40;;;13.90;84.30;;;;;;4991287;28;20022;-76
2024/03/03 11:26:21;;;;;;;6.30;3.10;;;13.90;84.50;;;;;;4991499;28;20073;-77
2024/03/03 11:28:51;;;;;;;7.57;3.00;;;13.80;84.50;;;;;;4991227;28;20033;-77
2024/03/03 11:31:17;;;;;;;6.00;3.25;;;13.90;84.60;;;;;;4991891;28;20390;-77
2024/03/03 11:33:43;;;;;;;6.28;2.85;;;13.80;84.60;;;;;;4992312;28;20056;-76
2024/03/03 11:36:10;;;;;;;6.43;2.92;;;13.80;84.60;;;;;;5008492;28;20496;-77
2024/03/03 11:38:46;;;;;;;5.38;3.15;;;13.80;84.60;;;;;;4990898;28;20759;-76
2024/03/03 11:41:12;;;;;;;5.55;2.92;;;13.80;84.70;;;;;;4991168;28;20026;-76
2024/03/03 11:43:39;;;;;;;4.78;2.72;;;13.80;84.70;;;;;;4990796;28;20046;-76
2024/03/03 11:46:04;;;;;;;6.32;3.15;;;13.80;84.80;;;;;;4991694;28;20034;-77
2024/03/03 11:48:30;;;;;;;5.63;3.03;;;13.70;84.80;;;;;;5009423;28;20573;-77
2024/03/03 11:51:22;;;;;;;5.68;3.47;;;13.70;84.80;;;;;;5009898;28;20026;-78
2024/03/03 11:53:59;;;;;;;5.63;2.60;;;13.70;85.40;;;;;;4995872;28;20540;-78
2024/03/03 11:56:28;;;;;;;5.50;2.88;;;13.70;84.90;;;;;;5007931;28;20034;-77
2024/03/03 11:58:54;;;;;;;5.68;3.28;;;13.70;85.00;;;;;;4990723;28;20088;-78
2024/03/03 12:01:22;;;;;;;5.07;2.78;;;13.70;85.00;;;;;;4990903;28;20033;-78
2024/03/03 12:03:49;;;;;;;5.28;3.08;;;13.70;85.00;;;;;;4990870;28;20022;-77
2024/03/03 12:06:18;;;;;;;5.75;3.00;;;13.70;85.00;;;;;;5007723;28;20387;-77
2024/03/03 12:08:52;;;;;;;4.72;2.80;;;13.70;85.00;;;;;;5008184;28;20040;-76
2024/03/03 12:11:17;;;;;;;4.95;2.95;;;13.70;85.00;;;;;;4990534;28;20084;-77
2024/03/03 12:13:43;;;;;;;5.50;3.03;;;13.70;85.00;;;;;;5008168;28;20434;-78
2024/03/03 12:16:08;;;;;;;5.43;2.85;;;13.60;84.90;;;;;;4990436;28;20030;-78
2024/03/03 12:18:34;;;;;;;5.50;3.20;;;13.70;85.00;;;;;;5008024;28;20037;-77
2024/03/03 12:21:01;;;;;;;5.00;3.00;;;13.70;85.00;;;;;;4990111;28;20072;-77
2024/03/03 12:23:28;;;;;;;6.47;3.30;;;13.70;85.00;;;;;;4989773;28;20030;-77
2024/03/03 12:25:54;;;;;;;5.18;2.90;;;13.60;84.90;;;;;;4990424;28;20109;-77
2024/03/03 12:28:23;;;;;;;5.18;2.83;;;13.70;85.00;;;;;;4990423;28;20084;-77
2024/03/03 12:30:50;;;;;;;5.35;2.97;;;13.60;85.00;;;;;;5007834;28;20033;-77
2024/03/03 12:33:17;;;;;;;4.88;2.67;;;13.60;85.10;;;;;;4990529;28;20060;-77
2024/03/03 12:35:44;;;;;;;5.03;3.00;;;13.60;85.10;;;;;;4990321;28;20030;-76
2024/03/03 12:38:10;;;;;;;4.90;2.70;;;13.60;85.10;;;;;;4990826;28;20061;-77
2024/03/03 12:40:35;;;;;;;5.18;2.83;;;13.60;85.10;;;;;;4990433;28;20032;-77
2024/03/03 12:43:02;;;;;;;6.18;2.92;;;13.60;85.10;;;;;;4990517;28;20402;-78
2024/03/03 12:45:28;;;;;;;4.93;2.60;;;13.60;85.10;;;;;;4990224;28;20817;-77